createdAt,value
2022-10-02T00:02:22.875Z,10.88
2022-10-02T00:05:22.619Z,10.71
2022-10-02T00:08:34.461Z,10.83
2022-10-02T00:11:36.336Z,10.81
2022-10-02T00:14:24.532Z,10.79
2022-10-02T00:17:15.741Z,10.76
2022-10-02T00:20:02.608Z,10.72
2022-10-02T00:23:02.420Z,10.68
2022-10-02T00:26:00.329Z,10.64
2022-10-02T00:29:08.152Z,10.59
2022-10-02T00:32:27.555Z,10.57
2022-10-02T00:35:48.435Z,10.50
2022-10-02T00:38:41.087Z,10.47
2022-10-02T00:41:55.701Z,10.42
2022-10-02T00:45:00.955Z,10.38
2022-10-02T00:48:08.828Z,10.32
2022-10-02T00:51:01.914Z,10.28
2022-10-02T00:54:15.429Z,10.22
2022-10-02T00:57:30.271Z,10.17
2022-10-02T01:00:31.120Z,10.15
2022-10-02T01:03:36.254Z,10.12
2022-10-02T01:06:23.520Z,10.12
2022-10-02T01:09:10.739Z,10.09
2022-10-02T01:11:58.464Z,10.07
2022-10-02T01:14:56.310Z,10.07
2022-10-02T01:17:47.021Z,9.99
2022-10-02T01:20:40.094Z,10.05
2022-10-02T01:23:35.868Z,10.05
2022-10-02T01:26:23.054Z,10.06
2022-10-02T01:29:10.056Z,10.07
2022-10-02T01:31:57.261Z,10.08
2022-10-02T01:34:44.394Z,9.98
2022-10-02T01:37:32.474Z,10.10
2022-10-02T01:40:25.387Z,10.11
2022-10-02T01:43:13.745Z,10.10
2022-10-02T01:46:27.767Z,10.11
2022-10-02T01:49:35.879Z,10.10
2022-10-02T01:53:16.967Z,10.09
2022-10-02T01:56:43.257Z,10.07
2022-10-02T02:00:03.272Z,10.07
2022-10-02T02:03:07.015Z,10.06
2022-10-02T02:06:12.405Z,10.04
2022-10-02T02:09:28.612Z,10.04
2022-10-02T02:12:23.132Z,10.06
2022-10-02T02:15:39.963Z,10.06
2022-10-02T02:18:51.445Z,10.07
2022-10-02T02:22:06.203Z,10.07
2022-10-02T02:25:28.566Z,10.09
2022-10-02T02:28:23.283Z,10.09
2022-10-02T02:31:13.673Z,10.11
2022-10-02T02:34:08.170Z,10.11
2022-10-02T02:37:09.144Z,10.09
2022-10-02T02:40:17.147Z,10.10
2022-10-02T02:43:14.480Z,10.11
2022-10-02T02:46:11.792Z,10.12
2022-10-02T02:49:09.248Z,10.13
2022-10-02T02:52:01.025Z,10.04
2022-10-02T02:54:56.075Z,10.14
2022-10-02T02:57:48.700Z,10.16
2022-10-02T03:00:36.440Z,10.13
2022-10-02T03:03:23.640Z,10.19
2022-10-02T03:06:16.866Z,10.16
2022-10-02T03:09:05.716Z,10.19
2022-10-02T03:12:13.072Z,10.19
2022-10-02T03:14:59.999Z,10.19
2022-10-02T03:18:15.164Z,10.18
2022-10-02T03:21:20.811Z,10.18
2022-10-02T03:24:10.467Z,10.18
2022-10-02T03:27:03.552Z,10.17
2022-10-02T03:29:58.628Z,10.15
2022-10-02T03:32:47.776Z,10.15
2022-10-02T03:35:35.185Z,10.15
2022-10-02T03:38:27.922Z,10.14
2022-10-02T03:41:15.400Z,10.13
2022-10-02T03:44:02.400Z,10.13
2022-10-02T03:46:49.338Z,10.10
2022-10-02T03:49:36.495Z,10.09
2022-10-02T03:52:23.436Z,10.08
2022-10-02T03:55:16.704Z,10.07
2022-10-02T03:58:04.689Z,10.05
2022-10-02T04:01:16.955Z,10.04
2022-10-02T04:04:09.208Z,10.02
2022-10-02T04:07:11.008Z,10.01
2022-10-02T04:10:06.860Z,10.00
2022-10-02T04:12:59.304Z,9.97
2022-10-02T04:15:58.744Z,9.76
2022-10-02T04:18:52.393Z,9.90
2022-10-02T04:22:03.728Z,9.85
2022-10-02T04:24:50.832Z,9.85
2022-10-02T04:28:06.818Z,9.82
2022-10-02T04:30:53.890Z,9.81
2022-10-02T04:33:44.279Z,9.80
2022-10-02T04:36:57.241Z,9.77
2022-10-02T04:40:13.211Z,9.76
2022-10-02T04:43:18.710Z,9.73
2022-10-02T04:46:10.951Z,9.70
2022-10-02T04:49:19.208Z,9.70
2022-10-02T04:52:27.244Z,9.67
2022-10-02T04:55:26.212Z,9.65
2022-10-02T04:58:19.742Z,9.62
2022-10-02T05:01:16.501Z,9.61
2022-10-02T05:04:06.258Z,9.59
2022-10-02T05:07:02.213Z,9.57
2022-10-02T05:10:00.180Z,9.57
2022-10-02T05:13:24.636Z,9.55
2022-10-02T05:16:36.781Z,9.54
2022-10-02T05:19:54.519Z,9.52
2022-10-02T05:23:12.039Z,9.52
2022-10-02T05:26:14.190Z,9.51
2022-10-02T05:29:18.335Z,9.50
2022-10-02T05:32:22.801Z,9.50
2022-10-02T05:35:28.560Z,9.49
2022-10-02T05:38:25.835Z,9.50
2022-10-02T05:41:24.834Z,9.50
2022-10-02T05:44:11.769Z,9.52
2022-10-02T05:47:17.329Z,9.50
2022-10-02T05:50:31.572Z,9.53
2022-10-02T05:53:25.133Z,9.53
2022-10-02T05:56:22.133Z,9.55
2022-10-02T05:59:16.073Z,9.56
2022-10-02T06:02:07.688Z,9.57
2022-10-02T06:05:00.134Z,9.59
2022-10-02T06:07:47.861Z,9.61
2022-10-02T06:10:41.843Z,9.61
2022-10-02T06:13:39.461Z,9.64
2022-10-02T06:16:38.752Z,9.67
2022-10-02T06:19:36.432Z,9.70
2022-10-02T06:22:35.027Z,9.69
2022-10-02T06:25:30.556Z,9.74
2022-10-02T06:28:58.988Z,9.77
2022-10-02T06:32:03.504Z,9.78
2022-10-02T06:34:50.583Z,9.82
2022-10-02T06:37:40.317Z,9.85
2022-10-02T06:40:33.044Z,9.89
2022-10-02T06:43:31.023Z,9.93
2022-10-02T06:46:51.470Z,9.97
2022-10-02T06:50:12.592Z,10.01
2022-10-02T06:53:06.096Z,10.05
2022-10-02T06:56:21.629Z,10.08
2022-10-02T06:59:46.069Z,10.10
2022-10-02T07:03:11.436Z,10.12
2022-10-02T07:06:09.716Z,10.15
2022-10-02T07:09:16.968Z,10.17
2022-10-02T07:12:46.276Z,10.19
2022-10-02T07:15:49.168Z,10.21
2022-10-02T07:18:54.254Z,10.23
2022-10-02T07:22:32.417Z,10.25
2022-10-02T07:25:40.108Z,10.27
2022-10-02T07:28:48.443Z,10.30
2022-10-02T07:31:44.380Z,10.32
2022-10-02T07:34:43.192Z,10.06
2022-10-02T07:37:51.909Z,10.37
2022-10-02T07:41:02.803Z,10.39
2022-10-02T07:44:20.381Z,10.41
2022-10-02T07:47:29.244Z,10.44
2022-10-02T07:50:30.507Z,10.48
2022-10-02T07:53:29.343Z,10.51
2022-10-02T07:56:16.984Z,10.54
2022-10-02T07:59:18.795Z,10.57
2022-10-02T08:02:08.887Z,10.57
2022-10-02T08:04:56.199Z,10.61
2022-10-02T08:07:43.339Z,10.63
2022-10-02T08:10:33.930Z,10.65
2022-10-02T08:13:30.816Z,10.65
2022-10-02T08:16:17.943Z,10.66
2022-10-02T08:19:09.201Z,10.66
2022-10-02T08:22:02.212Z,10.68
2022-10-02T08:25:06.775Z,10.70
2022-10-02T08:28:14.013Z,10.70
2022-10-02T08:31:01.201Z,10.72
2022-10-02T08:33:51.505Z,10.73
2022-10-02T08:36:57.607Z,10.73
2022-10-02T08:39:53.456Z,10.72
2022-10-02T08:42:58.491Z,10.72
2022-10-02T08:46:11.233Z,10.71
2022-10-02T08:49:19.302Z,10.70
2022-10-02T08:52:09.207Z,10.69
2022-10-02T08:55:02.245Z,10.67
2022-10-02T08:58:11.049Z,10.66
2022-10-02T09:01:09.567Z,10.67
2022-10-02T09:04:18.447Z,10.66
2022-10-02T09:07:43.276Z,10.66
2022-10-02T09:11:07.672Z,10.66
2022-10-02T09:14:16.095Z,10.64
2022-10-02T09:17:44.349Z,10.63
2022-10-02T09:20:58.944Z,10.65
2022-10-02T09:24:04.221Z,10.67
2022-10-02T09:26:51.289Z,10.69
2022-10-02T09:30:15.852Z,10.70
2022-10-02T09:33:31.960Z,10.70
2022-10-02T09:36:33.942Z,10.71
2022-10-02T09:39:32.951Z,10.69
2022-10-02T09:42:28.682Z,10.68
2022-10-02T09:46:29.528Z,10.67
2022-10-02T09:49:44.095Z,10.65
2022-10-02T09:53:07.152Z,10.63
2022-10-02T09:55:55.306Z,10.62
2022-10-02T09:58:51.605Z,10.61
2022-10-02T10:01:54.434Z,10.57
2022-10-02T10:04:21.635Z,10.57
2022-10-02T10:07:10.156Z,10.53
2022-10-02T10:09:53.635Z,10.48
2022-10-02T10:12:41.411Z,10.46
2022-10-02T10:15:11.044Z,10.45
2022-10-02T10:18:02.175Z,10.43
2022-10-02T10:20:50.539Z,10.42
2022-10-02T10:23:23.484Z,10.42
2022-10-02T10:25:53.177Z,10.43
2022-10-02T10:28:22.849Z,10.45
2022-10-02T10:30:52.886Z,10.47
2022-10-02T10:33:37.995Z,10.49
2022-10-02T10:36:44.573Z,10.51
2022-10-02T10:39:46.376Z,10.53
2022-10-02T10:42:44.916Z,10.57
2022-10-02T10:45:38.525Z,10.54
2022-10-02T10:48:05.556Z,10.57
2022-10-02T10:51:14.510Z,10.56
2022-10-02T10:54:01.928Z,10.58
2022-10-02T10:56:38.102Z,10.59
2022-10-02T10:59:25.635Z,10.60
2022-10-02T11:02:43.941Z,10.62
2022-10-02T11:05:49.419Z,10.63
2022-10-02T11:08:51.909Z,10.67
2022-10-02T11:12:17.436Z,10.70
2022-10-02T11:15:35.671Z,10.72
2022-10-02T11:18:40.577Z,10.77
2022-10-02T11:21:59.224Z,10.80
2022-10-02T11:25:40.053Z,10.86
2022-10-02T11:29:16.413Z,10.91
2022-10-02T11:32:12.148Z,10.95
2022-10-02T11:35:24.284Z,10.98
2022-10-02T11:38:23.830Z,11.03
2022-10-02T11:41:32.271Z,11.08
2022-10-02T11:44:34.025Z,11.13
2022-10-02T11:47:35.878Z,11.19
2022-10-02T11:50:58.348Z,11.26
2022-10-02T11:53:51.376Z,11.34
2022-10-02T11:57:11.960Z,11.40
2022-10-02T12:00:27.067Z,11.46
2022-10-02T12:03:51.486Z,11.53
2022-10-02T12:06:56.580Z,11.55
2022-10-02T12:10:05.041Z,11.60
2022-10-02T12:13:07.272Z,11.63
2022-10-02T12:16:12.990Z,11.64
2022-10-02T12:19:30.738Z,11.66
2022-10-02T12:22:35.489Z,11.67
2022-10-02T12:25:38.096Z,11.67
2022-10-02T12:28:29.427Z,11.63
2022-10-02T12:31:41.687Z,11.57
2022-10-02T12:34:48.892Z,11.66
2022-10-02T12:37:50.957Z,11.62
2022-10-02T12:40:50.455Z,11.66
2022-10-02T12:44:03.066Z,11.66
2022-10-02T12:47:13.170Z,11.67
2022-10-02T12:50:23.527Z,11.70
2022-10-02T12:53:19.461Z,11.72
2022-10-02T12:56:38.309Z,11.75
2022-10-02T12:59:51.592Z,11.76
2022-10-02T13:03:15.776Z,11.79
2022-10-02T13:06:17.782Z,11.82
2022-10-02T13:09:24.150Z,11.84
2022-10-02T13:12:16.167Z,11.86
2022-10-02T13:15:21.536Z,11.87
2022-10-02T13:18:16.444Z,11.88
2022-10-02T13:21:09.721Z,11.90
2022-10-02T13:24:21.326Z,11.92
2022-10-02T13:27:17.006Z,11.94
2022-10-02T13:30:11.607Z,11.94
2022-10-02T13:33:09.049Z,11.94
2022-10-02T13:36:07.628Z,11.95
2022-10-02T13:39:20.584Z,11.97
2022-10-02T13:42:37.772Z,11.98
2022-10-02T13:45:38.522Z,11.99
2022-10-02T13:48:54.454Z,12.00
2022-10-02T13:51:51.836Z,12.01
2022-10-02T13:55:03.859Z,12.01
2022-10-02T13:58:27.828Z,12.02
2022-10-02T14:02:19.557Z,12.02
2022-10-02T14:05:22.376Z,12.02
2022-10-02T14:08:15.428Z,12.03
2022-10-02T14:11:18.421Z,12.03
2022-10-02T14:14:05.541Z,12.02
2022-10-02T14:17:40.851Z,12.02
2022-10-02T14:20:55.812Z,12.01
2022-10-02T14:24:27.031Z,12.02
2022-10-02T14:27:32.034Z,12.03
2022-10-02T14:30:41.659Z,12.04
2022-10-02T14:33:46.477Z,12.03
2022-10-02T14:36:46.827Z,11.99
2022-10-02T14:39:36.504Z,12.04
2022-10-02T14:42:38.561Z,12.02
2022-10-02T14:45:44.112Z,12.05
2022-10-02T14:48:53.144Z,12.05
2022-10-02T14:51:58.345Z,12.06
2022-10-02T14:55:04.193Z,12.04
2022-10-02T14:58:29.133Z,12.04
2022-10-02T15:01:41.689Z,12.04
2022-10-02T15:04:37.578Z,12.05
2022-10-02T15:07:26.950Z,12.04
2022-10-02T15:10:41.161Z,12.03
2022-10-02T15:13:46.665Z,12.03
2022-10-02T15:17:06.043Z,12.01
2022-10-02T15:20:13.839Z,12.00
2022-10-02T15:23:06.932Z,11.98
2022-10-02T15:26:15.800Z,11.97
2022-10-02T15:29:29.925Z,11.96
2022-10-02T15:32:59.551Z,11.96
2022-10-02T15:36:05.524Z,11.95
2022-10-02T15:39:13.722Z,11.94
2022-10-02T15:42:07.218Z,11.91
2022-10-02T15:45:48.441Z,11.93
2022-10-02T15:48:46.044Z,11.91
2022-10-02T15:51:56.788Z,11.91
2022-10-02T15:55:07.711Z,11.88
2022-10-02T15:58:00.778Z,11.88
2022-10-02T16:00:29.958Z,11.85
2022-10-02T16:03:23.104Z,11.85
2022-10-02T16:06:17.488Z,11.83
2022-10-02T16:09:10.698Z,11.81
2022-10-02T16:12:14.300Z,11.80
2022-10-02T16:15:10.159Z,11.78
2022-10-02T16:18:15.836Z,11.76
2022-10-02T16:21:08.479Z,11.73
2022-10-02T16:24:10.149Z,11.71
2022-10-02T16:27:27.796Z,11.66
2022-10-02T16:30:33.683Z,11.63
2022-10-02T16:33:35.009Z,11.60
2022-10-02T16:36:34.148Z,11.59
2022-10-02T16:39:58.739Z,11.57
2022-10-02T16:42:54.533Z,11.55
2022-10-02T16:46:01.866Z,11.52
2022-10-02T16:48:59.536Z,11.51
2022-10-02T16:51:53.200Z,11.50
2022-10-02T16:54:49.049Z,11.49
2022-10-02T16:57:55.054Z,11.48
2022-10-02T17:00:41.991Z,11.48
2022-10-02T17:03:41.016Z,11.46
2022-10-02T17:07:00.204Z,11.44
2022-10-02T17:09:59.440Z,11.41
2022-10-02T17:13:07.763Z,11.38
2022-10-02T17:16:09.202Z,11.35
2022-10-02T17:19:01.447Z,11.30
2022-10-02T17:22:11.720Z,11.29
2022-10-02T17:25:12.559Z,11.26
2022-10-02T17:28:05.173Z,11.23
2022-10-02T17:31:25.878Z,11.22
2022-10-02T17:34:17.568Z,11.19
2022-10-02T17:37:25.819Z,11.17
2022-10-02T17:40:30.609Z,11.15
2022-10-02T17:43:48.601Z,11.14
2022-10-02T17:46:56.524Z,11.13
2022-10-02T17:49:46.127Z,11.13
2022-10-02T17:52:50.173Z,11.11
2022-10-02T17:55:50.753Z,11.10
2022-10-02T17:59:01.002Z,11.11
2022-10-02T18:01:53.021Z,11.10
2022-10-02T18:04:45.992Z,11.11
2022-10-02T18:07:34.761Z,11.11
2022-10-02T18:10:37.480Z,11.11
2022-10-02T18:13:10.415Z,11.11
2022-10-02T18:16:32.422Z,11.10
2022-10-02T18:19:44.435Z,11.09
2022-10-02T18:22:49.558Z,11.08
2022-10-02T18:25:55.089Z,11.06
2022-10-02T18:29:03.677Z,11.01
2022-10-02T18:31:56.322Z,11.02
2022-10-02T18:34:55.456Z,11.00
2022-10-02T18:38:16.930Z,10.98
2022-10-02T18:41:12.679Z,10.96
2022-10-02T18:44:12.084Z,10.97
2022-10-02T18:47:09.705Z,10.97
2022-10-02T18:50:06.100Z,10.96
2022-10-02T18:53:26.881Z,10.96
2022-10-02T18:56:29.944Z,10.97
2022-10-02T18:59:29.664Z,10.99
2022-10-02T19:02:22.216Z,10.99
2022-10-02T19:05:27.131Z,11.01
2022-10-02T19:08:22.719Z,11.03
2022-10-02T19:11:09.568Z,11.05
2022-10-02T19:14:01.037Z,11.06
2022-10-02T19:16:49.876Z,11.06
2022-10-02T19:19:40.782Z,11.09
2022-10-02T19:22:43.428Z,11.11
2022-10-02T19:25:35.413Z,11.13
2022-10-02T19:28:24.035Z,11.12
2022-10-02T19:31:27.446Z,11.07
2022-10-02T19:34:18.426Z,11.17
2022-10-02T19:37:11.572Z,11.19
2022-10-02T19:40:02.358Z,11.20
2022-10-02T19:42:58.164Z,11.23
2022-10-02T19:45:48.982Z,11.25
2022-10-02T19:48:38.709Z,11.26
2022-10-02T19:51:35.137Z,11.27
2022-10-02T19:54:27.432Z,11.27
2022-10-02T19:57:22.117Z,11.27
2022-10-02T20:00:11.619Z,11.28
2022-10-02T20:03:05.872Z,11.26
2022-10-02T20:05:55.676Z,11.24
2022-10-02T20:08:49.367Z,11.24
2022-10-02T20:11:55.569Z,11.23
2022-10-02T20:15:08.773Z,11.20
2022-10-02T20:17:57.356Z,11.21
2022-10-02T20:20:44.490Z,11.20
2022-10-02T20:23:37.109Z,11.20
2022-10-02T20:26:27.834Z,11.21
2022-10-02T20:29:19.183Z,11.22
2022-10-02T20:32:15.261Z,11.22
2022-10-02T20:35:07.556Z,11.23
2022-10-02T20:37:55.924Z,11.24
2022-10-02T20:40:47.528Z,11.24
2022-10-02T20:43:55.432Z,11.25
2022-10-02T20:46:54.200Z,11.25
2022-10-02T20:50:08.792Z,11.25
2022-10-02T20:52:58.722Z,11.24
2022-10-02T20:55:52.016Z,11.24
2022-10-02T20:59:04.148Z,11.23
2022-10-02T21:02:13.850Z,11.24
2022-10-02T21:05:12.703Z,11.23
2022-10-02T21:08:14.921Z,11.22
2022-10-02T21:11:36.322Z,11.23
2022-10-02T21:14:50.090Z,11.24
2022-10-02T21:17:52.352Z,11.08
2022-10-02T21:20:58.090Z,11.25
2022-10-02T21:24:10.018Z,11.25
2022-10-02T21:27:00.095Z,11.26
2022-10-02T21:30:05.288Z,11.29
2022-10-02T21:33:19.903Z,11.28
2022-10-02T21:36:11.129Z,11.29
2022-10-02T21:39:39.935Z,11.28
2022-10-02T21:42:40.956Z,11.28
2022-10-02T21:45:36.870Z,11.27
2022-10-02T21:48:46.986Z,11.26
2022-10-02T21:51:42.606Z,11.26
2022-10-02T21:55:11.035Z,11.26
2022-10-02T21:58:20.863Z,11.25
2022-10-02T22:01:57.478Z,11.25
2022-10-02T22:05:10.047Z,11.24
2022-10-02T22:08:05.866Z,11.24
2022-10-02T22:11:00.497Z,11.24
2022-10-02T22:13:58.829Z,11.22
2022-10-02T22:17:00.867Z,11.21
2022-10-02T22:20:07.333Z,11.20
2022-10-02T22:23:16.233Z,11.15
2022-10-02T22:26:18.308Z,11.14
2022-10-02T22:29:30.004Z,11.11
2022-10-02T22:32:29.888Z,11.10
2022-10-02T22:35:25.074Z,11.12
2022-10-02T22:38:14.877Z,11.12
2022-10-02T22:41:10.971Z,11.14
2022-10-02T22:44:37.388Z,11.13
2022-10-02T22:47:30.763Z,11.14
2022-10-02T22:50:23.357Z,11.15
2022-10-02T22:53:31.693Z,11.16
2022-10-02T22:56:18.623Z,11.16
2022-10-02T22:59:13.856Z,11.17
2022-10-02T23:02:13.898Z,11.18
2022-10-02T23:05:12.647Z,11.19
2022-10-02T23:08:19.728Z,11.20
2022-10-02T23:11:19.593Z,11.19
2022-10-02T23:14:38.016Z,11.19
2022-10-02T23:17:33.099Z,11.20
2022-10-02T23:20:39.642Z,11.20
2022-10-02T23:23:44.881Z,11.21
2022-10-02T23:26:45.436Z,11.21
2022-10-02T23:30:05.870Z,11.20
2022-10-02T23:32:55.328Z,11.19
2022-10-02T23:36:08.712Z,11.18
2022-10-02T23:39:13.852Z,11.18
2022-10-02T23:42:08.362Z,11.12
2022-10-02T23:45:06.175Z,11.16
2022-10-02T23:48:07.867Z,11.14
2022-10-02T23:51:05.656Z,11.11
2022-10-02T23:54:14.389Z,11.11
2022-10-02T23:57:28.674Z,11.10
